Time;durP1;ratioP1;P1;durP2;ratioP2;P2;SDS_P1;SDS_P2;PMS_P1;PMS_P2;Temp;Humidity;BMP_temperature;BMP_pressure;BME280_temperature;BME280_humidity;BME280_pressure;Samples;Min_cycle;Max_cycle;Signal;HPM_P1;HPM_P2
2023/11/13 00:00:29;;;;;;;6.30;4.87;;;10.10;97.70;;;;;;5038459;28;20423;-40
2023/11/13 00:02:55;;;;;;;6.67;4.47;;;10.10;97.80;;;;;;5002858;28;20450;-41
2023/11/13 00:05:23;;;;;;;7.93;4.70;;;10.10;97.80;;;;;;5022541;28;20496;-41
2023/11/13 00:07:50;;;;;;;6.63;4.60;;;10.10;97.90;;;;;;5038695;28;20184;-43
2023/11/13 00:10:16;;;;;;;5.30;4.60;;;10.10;97.80;;;;;;5039444;28;20422;-39
2023/11/13 00:12:42;;;;;;;5.60;5.00;;;10.10;97.80;;;;;;5020360;28;20548;-40
2023/11/13 00:15:11;;;;;;;7.20;4.90;;;10.10;97.70;;;;;;5038953;28;20516;-40
2023/11/13 00:17:39;;;;;;;5.10;4.60;;;10.10;97.80;;;;;;5038072;28;20423;-41
2023/11/13 00:20:08;;;;;;;5.03;3.80;;;10.10;97.90;;;;;;5020808;28;20426;-39
2023/11/13 00:22:34;;;;;;;5.90;4.83;;;10.00;97.90;;;;;;5038284;28;20979;-39
2023/11/13 00:25:00;;;;;;;5.70;4.97;;;10.00;97.90;;;;;;5025413;28;20455;-40
2023/11/13 00:27:30;;;;;;;5.47;4.75;;;10.00;97.90;;;;;;5038558;28;20436;-41
2023/11/13 00:29:56;;;;;;;6.38;4.30;;;10.00;98.00;;;;;;5021064;28;20200;-39
2023/11/13 00:32:22;;;;;;;7.87;4.23;;;10.10;97.90;;;;;;5024909;28;20220;-41
2023/11/13 00:34:48;;;;;;;5.30;4.17;;;10.10;97.70;;;;;;5039132;28;20450;-38
2023/11/13 00:37:14;;;;;;;5.03;4.33;;;10.10;97.70;;;;;;5003728;28;20422;-38
2023/11/13 00:39:42;;;;;;;6.97;5.28;;;10.10;97.70;;;;;;5026114;28;20437;-39
2023/11/13 00:42:11;;;;;;;5.20;4.70;;;10.10;97.70;;;;;;5038429;28;20258;-40
2023/11/13 00:44:40;;;;;;;5.93;4.23;;;10.10;97.70;;;;;;5038265;28;20837;-42
2023/11/13 00:47:06;;;;;;;4.83;4.43;;;10.10;97.70;;;;;;5006075;28;20455;-40
2023/11/13 00:49:32;;;;;;;5.70;4.17;;;10.10;97.70;;;;;;5042216;28;20437;-40
2023/11/13 00:51:59;;;;;;;6.93;5.10;;;10.00;97.80;;;;;;5042425;28;20436;-42
2023/11/13 00:54:29;;;;;;;4.73;4.30;;;10.00;97.80;;;;;;5012268;28;20544;-40
2023/11/13 00:56:58;;;;;;;6.40;4.83;;;10.00;97.80;;;;;;5042085;28;20443;-40
2023/11/13 00:59:27;;;;;;;4.90;4.40;;;10.00;97.90;;;;;;5008477;28;20433;-42
2023/11/13 01:01:57;;;;;;;5.60;4.70;;;10.00;97.90;;;;;;5028877;28;20455;-41
2023/11/13 01:04:29;;;;;;;4.50;4.10;;;10.00;98.00;;;;;;5039944;28;20418;-40
2023/11/13 01:06:55;;;;;;;5.30;4.40;;;10.00;98.10;;;;;;5011982;28;20434;-41
2023/11/13 01:09:22;;;;;;;6.53;4.33;;;10.00;98.10;;;;;;5032577;28;20456;-42
2023/11/13 01:11:50;;;;;;;5.23;4.73;;;10.00;98.10;;;;;;5025103;28;20451;-38
2023/11/13 01:14:16;;;;;;;5.60;4.80;;;10.00;98.10;;;;;;5040187;28;20470;-38
2023/11/13 01:16:42;;;;;;;5.07;4.50;;;10.00;98.10;;;;;;5011960;28;20508;-38
2023/11/13 01:19:11;;;;;;;5.07;4.57;;;10.00;98.10;;;;;;5033352;28;20981;-42
2023/11/13 01:21:40;;;;;;;5.30;4.70;;;9.90;98.70;;;;;;5040432;28;20450;-43
2023/11/13 01:24:08;;;;;;;4.90;4.40;;;9.90;98.70;;;;;;5027974;28;20444;-41
2023/11/13 01:26:35;;;;;;;7.30;4.30;;;9.90;98.60;;;;;;5030393;28;20457;-40
2023/11/13 01:29:04;;;;;;;7.13;4.50;;;9.90;98.70;;;;;;5030418;28;20553;-38
2023/11/13 01:31:32;;;;;;;4.90;4.10;;;9.90;98.70;;;;;;5011937;28;20447;-40
2023/11/13 01:34:00;;;;;;;6.00;4.10;;;9.90;98.70;;;;;;5026361;28;20467;-40
2023/11/13 01:36:26;;;;;;;3.90;3.60;;;9.90;98.70;;;;;;5040012;28;20437;-38
2023/11/13 01:38:52;;;;;;;4.33;3.93;;;9.90;98.70;;;;;;5040319;28;20434;-39
2023/11/13 01:41:19;;;;;;;4.77;4.27;;;9.90;98.70;;;;;;5006581;28;21082;-40
2023/11/13 01:43:45;;;;;;;4.17;3.60;;;9.90;98.70;;;;;;5040514;28;20434;-41
2023/11/13 01:46:11;;;;;;;4.50;4.10;;;9.90;98.70;;;;;;5031535;28;20481;-38
2023/11/13 01:48:39;;;;;;;4.17;3.73;;;9.90;98.70;;;;;;5009704;28;20913;-39
2023/11/13 01:51:08;;;;;;;5.33;3.80;;;9.90;98.70;;;;;;5039946;28;20426;-43
2023/11/13 01:53:34;;;;;;;4.40;4.00;;;9.90;98.70;;;;;;5022123;28;20914;-40
2023/11/13 01:56:01;;;;;;;4.77;4.37;;;9.90;98.70;;;;;;5030082;28;21045;-40
2023/11/13 01:58:28;;;;;;;5.30;4.20;;;9.90;98.70;;;;;;5013264;28;20431;-38
2023/11/13 02:00:55;;;;;;;5.20;4.10;;;9.90;98.80;;;;;;5005797;28;21002;-40
2023/11/13 02:03:25;;;;;;;5.03;4.32;;;9.90;98.80;;;;;;5009021;28;20917;-41
2023/11/13 02:05:52;;;;;;;4.73;4.17;;;9.90;99.10;;;;;;5007507;28;20445;-41
2023/11/13 02:08:20;;;;;;;4.30;3.73;;;10.00;98.10;;;;;;5012550;28;20414;-39
2023/11/13 02:10:47;;;;;;;4.45;3.80;;;10.00;98.00;;;;;;5023957;28;20426;-40
2023/11/13 02:13:16;;;;;;;4.87;3.83;;;10.00;98.00;;;;;;5033507;28;20215;-39
2023/11/13 02:15:46;;;;;;;4.30;3.90;;;10.10;97.90;;;;;;5025010;28;20426;-40
2023/11/13 02:18:13;;;;;;;3.97;3.60;;;10.10;97.90;;;;;;5031275;28;20434;-42
2023/11/13 02:20:39;;;;;;;4.40;4.00;;;10.10;97.80;;;;;;5040170;28;20423;-41
2023/11/13 02:23:06;;;;;;;4.22;3.83;;;10.00;97.80;;;;;;5024473;28;20444;-39
2023/11/13 02:25:37;;;;;;;4.80;3.80;;;10.00;97.90;;;;;;5027765;28;20239;-39
2023/11/13 02:28:06;;;;;;;3.37;3.07;;;10.10;97.90;;;;;;5024218;28;20430;-42
2023/11/13 02:30:38;;;;;;;4.50;3.80;;;10.10;97.90;;;;;;5026143;28;20421;-39
2023/11/13 02:33:05;;;;;;;4.93;4.10;;;10.00;97.80;;;;;;5022803;28;20474;-39
2023/11/13 02:35:31;;;;;;;4.33;3.83;;;10.00;97.90;;;;;;5025164;28;20946;-35
2023/11/13 02:37:57;;;;;;;4.10;3.70;;;10.00;97.90;;;;;;5017943;28;20467;-42
2023/11/13 02:40:23;;;;;;;4.53;3.85;;;9.90;98.50;;;;;;5008682;28;20442;-42
2023/11/13 02:42:50;;;;;;;6.60;3.40;;;10.00;98.00;;;;;;5010966;28;20216;-42
2023/11/13 02:45:16;;;;;;;4.40;3.67;;;10.00;97.90;;;;;;5048424;28;20453;-37
2023/11/13 02:47:42;;;;;;;4.15;3.78;;;10.00;97.80;;;;;;5011820;28;20449;-41
2023/11/13 02:50:11;;;;;;;4.60;3.90;;;10.00;97.80;;;;;;5026966;28;20323;-41
2023/11/13 02:52:37;;;;;;;4.90;3.73;;;10.10;97.80;;;;;;5024216;28;20763;-42
2023/11/13 02:55:05;;;;;;;3.67;3.37;;;10.10;97.70;;;;;;5045294;28;20419;-39
2023/11/13 02:57:36;;;;;;;4.50;3.97;;;10.10;97.70;;;;;;5021602;28;20907;-38
2023/11/13 03:00:07;;;;;;;4.10;3.53;;;10.10;97.70;;;;;;5022448;28;20424;-36
2023/11/13 03:02:33;;;;;;;4.37;3.50;;;10.00;97.80;;;;;;5022448;28;20442;-36
2023/11/13 03:04:59;;;;;;;3.87;3.23;;;10.00;97.80;;;;;;5038970;28;20451;-38
2023/11/13 03:07:26;;;;;;;3.87;3.37;;;10.00;97.90;;;;;;5039964;28;20457;-33
2023/11/13 03:09:54;;;;;;;4.40;3.60;;;10.00;97.90;;;;;;5028488;28;20512;-32
2023/11/13 03:12:23;;;;;;;3.60;3.30;;;10.00;98.00;;;;;;5038269;28;20973;-35
2023/11/13 03:14:50;;;;;;;3.37;3.07;;;10.00;98.10;;;;;;5039902;28;20476;-34
2023/11/13 03:17:16;;;;;;;5.40;3.00;;;10.00;98.10;;;;;;5023177;28;20534;-33
2023/11/13 03:19:43;;;;;;;3.90;3.33;;;10.00;98.10;;;;;;5016025;28;20177;-36
2023/11/13 03:22:12;;;;;;;3.83;3.47;;;10.00;98.10;;;;;;5019951;28;20508;-32
2023/11/13 03:24:41;;;;;;;6.40;4.63;;;10.00;98.00;;;;;;5022076;28;20949;-40
2023/11/13 03:27:10;;;;;;;3.50;3.20;;;10.00;98.10;;;;;;5007402;28;20181;-37
2023/11/13 03:29:40;;;;;;;3.40;3.10;;;10.10;98.00;;;;;;5032660;28;20274;-34
2023/11/13 03:32:09;;;;;;;3.57;3.27;;;10.10;98.10;;;;;;5014636;28;20207;-40
2023/11/13 03:34:37;;;;;;;3.43;3.10;;;10.20;97.80;;;;;;5009324;28;20424;-32
2023/11/13 03:37:05;;;;;;;3.22;3.03;;;10.10;97.70;;;;;;5036714;28;20427;-37
2023/11/13 03:39:33;;;;;;;4.00;3.70;;;10.20;97.70;;;;;;5025717;28;20265;-39
2023/11/13 03:41:59;;;;;;;7.90;3.83;;;10.20;97.70;;;;;;5012522;28;20455;-35
2023/11/13 03:44:28;;;;;;;4.10;3.70;;;10.20;97.70;;;;;;5021264;28;20461;-35
2023/11/13 03:46:56;;;;;;;3.20;2.90;;;10.10;97.70;;;;;;5040750;28;20451;-37
2023/11/13 03:49:24;;;;;;;4.30;3.50;;;10.10;97.80;;;;;;5038948;28;20195;-34
2023/11/13 03:51:50;;;;;;;4.13;3.73;;;10.10;97.90;;;;;;5018985;28;20792;-36
2023/11/13 03:54:16;;;;;;;4.00;3.60;;;10.00;97.90;;;;;;4997307;28;20474;-38
2023/11/13 03:56:47;;;;;;;3.50;3.20;;;10.00;98.00;;;;;;5029101;28;20426;-40
2023/11/13 03:59:15;;;;;;;5.63;3.10;;;10.00;98.20;;;;;;5015667;28;20547;-37
2023/11/13 04:01:42;;;;;;;4.47;3.63;;;10.00;98.20;;;;;;5043566;28;20498;-41
2023/11/13 04:04:09;;;;;;;4.40;4.00;;;10.00;98.30;;;;;;5047618;28;20529;-36
2023/11/13 04:06:35;;;;;;;5.53;3.50;;;10.00;98.40;;;;;;5054222;28;20978;-36
2023/11/13 04:09:01;;;;;;;4.00;3.70;;;10.00;98.40;;;;;;5013594;28;20192;-40
2023/11/13 04:11:28;;;;;;;3.33;3.13;;;10.10;98.30;;;;;;5020202;28;20224;-36
2023/11/13 04:13:55;;;;;;;3.60;3.30;;;10.10;98.30;;;;;;5017782;28;20277;-37
2023/11/13 04:16:24;;;;;;;5.83;3.20;;;10.10;98.30;;;;;;5033181;28;20427;-37
2023/11/13 04:18:50;;;;;;;3.73;3.43;;;10.10;98.30;;;;;;5014445;28;20780;-35
2023/11/13 04:21:18;;;;;;;5.18;3.28;;;10.10;98.30;;;;;;5006998;28;20846;-41
2023/11/13 04:23:44;;;;;;;4.07;3.77;;;10.10;98.40;;;;;;5028058;28;20235;-36
2023/11/13 04:26:10;;;;;;;6.60;3.50;;;10.10;98.30;;;;;;5027445;28;20435;-37
2023/11/13 04:28:36;;;;;;;3.88;3.35;;;10.10;98.30;;;;;;5047335;28;20473;-37
2023/11/13 04:31:02;;;;;;;4.50;4.10;;;10.10;98.40;;;;;;5033742;28;20906;-37
2023/11/13 04:33:30;;;;;;;4.55;3.63;;;10.10;98.30;;;;;;5029062;28;20232;-39
2023/11/13 04:36:01;;;;;;;4.63;4.03;;;10.20;98.30;;;;;;5036855;28;20253;-37
2023/11/13 04:38:27;;;;;;;4.97;3.87;;;10.20;98.10;;;;;;5031977;28;20467;-39
2023/11/13 04:40:53;;;;;;;4.90;3.70;;;10.20;98.10;;;;;;5025667;28;20430;-36
2023/11/13 04:43:25;;;;;;;3.83;3.53;;;10.10;98.30;;;;;;5037380;28;20807;-41
2023/11/13 04:45:54;;;;;;;6.90;3.83;;;10.10;98.40;;;;;;5026656;28;20432;-36
2023/11/13 04:48:24;;;;;;;4.43;4.03;;;10.10;98.50;;;;;;5038803;28;20437;-36
2023/11/13 04:50:53;;;;;;;3.87;3.57;;;10.00;98.60;;;;;;5054732;28;20423;-41
2023/11/13 04:53:21;;;;;;;4.27;3.60;;;10.10;98.70;;;;;;5040257;28;20467;-41
2023/11/13 04:55:49;;;;;;;5.07;3.50;;;10.10;98.70;;;;;;5033157;28;20419;-40
2023/11/13 04:58:17;;;;;;;4.20;3.78;;;10.00;98.70;;;;;;5030366;28;20416;-33
2023/11/13 05:00:43;;;;;;;3.70;3.40;;;10.00;98.70;;;;;;5022998;28;20263;-34
2023/11/13 05:03:12;;;;;;;4.50;2.93;;;10.10;98.80;;;;;;5004842;28;20439;-38
2023/11/13 05:05:38;;;;;;;3.63;3.30;;;10.10;98.70;;;;;;5027453;28;20441;-40
2023/11/13 05:08:06;;;;;;;4.00;3.57;;;10.10;98.70;;;;;;5015297;28;20442;-41
2023/11/13 05:10:33;;;;;;;3.80;3.40;;;10.10;98.80;;;;;;5038802;28;20449;-35
2023/11/13 05:13:04;;;;;;;4.10;3.70;;;10.10;98.90;;;;;;5028462;28;20571;-40
2023/11/13 05:15:30;;;;;;;4.20;3.40;;;10.10;98.90;;;;;;5036241;28;20447;-38
2023/11/13 05:17:56;;;;;;;3.30;3.00;;;10.00;99.00;;;;;;5025649;28;20421;-37
2023/11/13 05:20:22;;;;;;;3.20;3.00;;;10.00;99.00;;;;;;5048220;28;20541;-37
2023/11/13 05:22:48;;;;;;;3.90;3.53;;;10.00;99.10;;;;;;5037832;28;20458;-37
2023/11/13 05:25:18;;;;;;;4.30;3.50;;;10.00;99.20;;;;;;5032206;28;20475;-40
2023/11/13 05:27:46;;;;;;;3.37;3.07;;;10.00;99.20;;;;;;5061001;28;20210;-37
2023/11/13 05:30:12;;;;;;;3.57;3.13;;;10.00;99.10;;;;;;5048855;28;21404;-37
2023/11/13 05:32:41;;;;;;;3.93;3.63;;;10.00;99.10;;;;;;5041958;28;21030;-38
2023/11/13 05:35:07;;;;;;;3.80;3.50;;;10.00;99.20;;;;;;5029644;28;20481;-35
2023/11/13 05:37:33;;;;;;;3.50;3.20;;;10.00;99.20;;;;;;5040726;28;20449;-36
2023/11/13 05:39:59;;;;;;;3.05;2.85;;;10.00;99.50;;;;;;5042360;28;20427;-38
2023/11/13 05:42:25;;;;;;;4.50;4.10;;;10.00;99.50;;;;;;5023409;28;20219;-34
2023/11/13 05:44:54;;;;;;;3.80;3.40;;;10.10;99.40;;;;;;5034940;28;20451;-39
2023/11/13 05:47:22;;;;;;;4.23;3.47;;;10.00;99.50;;;;;;5023369;28;20795;-37
2023/11/13 05:49:51;;;;;;;3.50;3.17;;;10.10;99.60;;;;;;5038373;28;20414;-37
2023/11/13 05:52:18;;;;;;;3.50;3.20;;;10.10;99.50;;;;;;5010408;28;20447;-38
2023/11/13 05:54:46;;;;;;;4.00;3.60;;;10.10;99.50;;;;;;5041825;28;21261;-39
2023/11/13 05:57:12;;;;;;;4.73;4.33;;;10.10;99.60;;;;;;5022294;28;20431;-34
2023/11/13 05:59:38;;;;;;;4.93;4.10;;;10.10;99.70;;;;;;5018451;28;20484;-40
2023/11/13 06:02:05;;;;;;;4.20;3.80;;;10.10;99.60;;;;;;5034699;28;20825;-37
2023/11/13 06:04:35;;;;;;;3.83;3.53;;;10.10;99.80;;;;;;5022927;28;20946;-37
2023/11/13 06:07:01;;;;;;;4.80;4.40;;;10.00;99.70;;;;;;5038679;28;20786;-39
2023/11/13 06:09:27;;;;;;;4.23;3.83;;;10.10;99.70;;;;;;5019410;28;20432;-38
2023/11/13 06:11:55;;;;;;;5.63;3.93;;;10.10;99.80;;;;;;5029828;28;20894;-39
2023/11/13 06:14:26;;;;;;;4.43;4.03;;;10.10;99.80;;;;;;5031055;28;20471;-40
2023/11/13 06:16:52;;;;;;;4.78;3.90;;;10.10;99.70;;;;;;5015481;28;20197;-37
2023/11/13 06:19:18;;;;;;;5.20;4.70;;;10.20;99.60;;;;;;5038399;28;20192;-38
2023/11/13 06:21:44;;;;;;;4.55;4.18;;;10.20;99.50;;;;;;5043396;28;20453;-38
2023/11/13 06:24:11;;;;;;;3.93;3.63;;;10.20;99.50;;;;;;5037711;28;20187;-36
2023/11/13 06:26:36;;;;;;;5.30;4.80;;;10.30;99.40;;;;;;5026514;28;20187;-37
2023/11/13 06:29:05;;;;;;;5.73;4.20;;;10.20;99.40;;;;;;5020352;28;20173;-37
2023/11/13 06:31:31;;;;;;;3.80;3.50;;;10.30;99.50;;;;;;5043416;28;20488;-40
2023/11/13 06:33:59;;;;;;;5.53;4.30;;;10.20;99.40;;;;;;5023073;28;20466;-37
2023/11/13 06:36:28;;;;;;;4.30;3.90;;;10.20;99.50;;;;;;5050687;28;20478;-36
2023/11/13 06:38:54;;;;;;;4.60;4.20;;;10.20;99.50;;;;;;5050062;28;20450;-36
2023/11/13 06:41:23;;;;;;;4.53;4.13;;;10.20;99.60;;;;;;5030772;28;20449;-38
2023/11/13 06:43:52;;;;;;;4.30;3.90;;;10.20;99.60;;;;;;5022647;28;20196;-38
2023/11/13 06:46:18;;;;;;;4.88;4.15;;;10.20;99.90;;;;;;5032231;28;20530;-38
2023/11/13 06:48:44;;;;;;;4.85;4.03;;;10.20;99.50;;;;;;5019639;28;20268;-34
2023/11/13 06:51:17;;;;;;;4.30;3.87;;;10.30;99.40;;;;;;5029936;28;20181;-39
2023/11/13 06:53:43;;;;;;;4.90;4.50;;;10.30;99.30;;;;;;5025524;28;20524;-40
2023/11/13 06:56:09;;;;;;;4.47;4.07;;;10.30;99.30;;;;;;5046790;28;20427;-36
2023/11/13 06:58:40;;;;;;;4.43;3.93;;;10.20;99.20;;;;;;5043201;28;20429;-38
2023/11/13 07:01:08;;;;;;;7.70;4.23;;;10.20;99.40;;;;;;5050501;28;20426;-40
2023/11/13 07:03:35;;;;;;;4.90;4.50;;;10.20;99.60;;;;;;4995666;28;20414;-39
2023/11/13 07:06:01;;;;;;;4.50;4.10;;;10.20;99.60;;;;;;5029523;28;20431;-36
2023/11/13 07:08:30;;;;;;;4.37;3.97;;;10.20;99.70;;;;;;5017967;28;20436;-39
2023/11/13 07:10:56;;;;;;;4.23;3.93;;;10.20;99.90;;;;;;5004018;28;20526;-37
2023/11/13 07:13:22;;;;;;;11.40;4.23;;;10.20;99.80;;;;;;5027889;28;20529;-36
2023/11/13 07:15:48;;;;;;;4.75;4.10;;;10.10;99.80;;;;;;5040537;28;20418;-34
2023/11/13 07:18:16;;;;;;;4.63;4.23;;;10.20;99.90;;;;;;5019896;28;20179;-39
2023/11/13 07:20:42;;;;;;;4.38;4.07;;;10.20;99.80;;;;;;5027558;28;20181;-36
2023/11/13 07:23:23;;;;;;;4.83;4.40;;;10.30;99.90;;;;;;5098131;22;20328;-33
2023/11/13 07:25:52;;;;;;;4.37;3.80;;;10.30;99.80;;;;;;4993417;28;20452;-31
2023/11/13 07:28:22;;;;;;;4.23;3.93;;;10.30;99.70;;;;;;4988877;28;20428;-33
2023/11/13 07:30:49;;;;;;;10.50;3.90;;;10.30;99.80;;;;;;5021748;28;20910;-31
2023/11/13 07:33:15;;;;;;;4.50;3.80;;;10.30;99.90;;;;;;5021487;28;20525;-31
2023/11/13 07:35:43;;;;;;;4.00;3.70;;;10.20;99.90;;;;;;5020727;28;20432;-31
2023/11/13 07:38:12;;;;;;;4.50;4.10;;;10.20;99.90;;;;;;5017174;28;20436;-31
2023/11/13 07:40:38;;;;;;;3.90;3.30;;;10.20;99.90;;;;;;5003206;28;20944;-34
2023/11/13 07:43:08;;;;;;;7.03;4.33;;;10.20;99.90;;;;;;5009617;28;20527;-31
2023/11/13 07:45:37;;;;;;;4.43;3.63;;;10.20;99.90;;;;;;5020941;28;20443;-31
2023/11/13 07:48:04;;;;;;;4.30;3.60;;;10.20;99.90;;;;;;4999335;28;20442;-36
2023/11/13 07:50:32;;;;;;;3.95;3.30;;;10.20;99.90;;;;;;5000425;28;20537;-30
2023/11/13 07:52:59;;;;;;;4.13;3.67;;;10.30;99.90;;;;;;5003187;28;20316;-33
2023/11/13 07:55:28;;;;;;;4.10;3.10;;;10.30;99.90;;;;;;4986086;28;20860;-34
2023/11/13 07:57:55;;;;;;;3.75;3.30;;;10.30;99.90;;;;;;4997344;28;20419;-34
2023/11/13 08:00:23;;;;;;;4.75;3.67;;;10.30;99.90;;;;;;5013205;28;20623;-29
2023/11/13 08:02:52;;;;;;;4.75;3.45;;;10.40;99.90;;;;;;4984956;28;20209;-31
2023/11/13 08:05:21;;;;;;;3.57;3.27;;;10.40;99.70;;;;;;4991698;28;20562;-30
2023/11/13 08:07:48;;;;;;;4.57;3.70;;;10.50;99.70;;;;;;5013177;28;21135;-31
2023/11/13 08:10:14;;;;;;;5.65;3.78;;;10.40;99.60;;;;;;5002423;28;20513;-32
2023/11/13 08:12:45;;;;;;;3.60;3.00;;;10.50;99.70;;;;;;4996752;28;20211;-35
2023/11/13 08:15:12;;;;;;;6.53;3.60;;;10.40;99.60;;;;;;4982881;28;20437;-33
2023/11/13 08:17:49;;;;;;;4.50;2.73;;;10.40;99.70;;;;;;5005538;28;20436;-35
2023/11/13 08:20:18;;;;;;;5.63;3.10;;;10.40;99.70;;;;;;5015809;28;21140;-32
2023/11/13 08:22:47;;;;;;;3.50;3.20;;;10.40;99.80;;;;;;4990244;28;21013;-30
2023/11/13 08:25:17;;;;;;;7.10;3.60;;;10.40;99.90;;;;;;4983965;28;20432;-32
2023/11/13 08:27:44;;;;;;;3.77;3.13;;;10.30;99.90;;;;;;4992010;28;20514;-32
2023/11/13 08:30:14;;;;;;;3.77;3.47;;;10.30;99.90;;;;;;4999140;28;20479;-36
2023/11/13 08:32:41;;;;;;;3.53;3.03;;;10.30;99.90;;;;;;4999043;28;20567;-31
2023/11/13 08:35:12;;;;;;;3.70;3.40;;;10.30;99.90;;;;;;4981858;28;20528;-32
2023/11/13 08:37:45;;;;;;;4.43;3.40;;;10.30;99.90;;;;;;4983434;28;20427;-32
2023/11/13 08:40:14;;;;;;;6.17;3.63;;;10.30;99.90;;;;;;4977155;28;20445;-30
2023/11/13 08:42:41;;;;;;;3.63;3.20;;;10.40;99.90;;;;;;4981092;28;20984;-26
2023/11/13 08:45:12;;;;;;;3.80;3.30;;;10.40;99.90;;;;;;4956928;28;20531;-33
2023/11/13 08:47:45;;;;;;;3.93;3.10;;;10.40;99.90;;;;;;5001059;28;20859;-29
2023/11/13 08:50:14;;;;;;;3.70;3.40;;;10.40;99.90;;;;;;5000804;28;20969;-32
2023/11/13 08:52:42;;;;;;;3.47;3.03;;;10.40;99.90;;;;;;4961542;28;20902;-33
2023/11/13 08:55:11;;;;;;;7.15;3.30;;;10.50;99.90;;;;;;4992174;28;20428;-30
2023/11/13 08:57:41;;;;;;;3.27;2.97;;;10.50;99.90;;;;;;4977233;28;20205;-29
2023/11/13 09:00:28;;;;;;;3.17;2.87;;;10.50;99.90;;;;;;4981021;28;20405;-31
2023/11/13 09:02:56;;;;;;;3.23;2.93;;;10.50;99.90;;;;;;4962892;28;20442;-29
2023/11/13 09:05:25;;;;;;;4.10;3.30;;;10.40;99.90;;;;;;4958566;28;20527;-31
2023/11/13 09:07:56;;;;;;;6.23;3.07;;;10.40;99.90;;;;;;4981086;28;20960;-31
2023/11/13 09:10:26;;;;;;;4.87;3.50;;;10.40;99.90;;;;;;4994717;28;20824;-33
2023/11/13 09:12:59;;;;;;;4.37;3.47;;;10.40;99.90;;;;;;4991389;28;20472;-29
2023/11/13 09:15:32;;;;;;;4.20;2.80;;;10.40;99.90;;;;;;4986968;28;20467;-27
2023/11/13 09:18:05;;;;;;;3.73;2.90;;;10.40;99.90;;;;;;4969993;28;20451;-29
2023/11/13 09:20:32;;;;;;;5.37;3.50;;;10.40;99.90;;;;;;4976991;28;20430;-27
2023/11/13 09:23:03;;;;;;;3.93;2.87;;;10.40;99.90;;;;;;5007166;28;20473;-29
2023/11/13 09:25:31;;;;;;;3.40;3.10;;;10.40;99.90;;;;;;5009948;28;20429;-30
2023/11/13 09:27:57;;;;;;;3.50;3.20;;;10.40;99.90;;;;;;4990337;28;20432;-30
2023/11/13 09:30:24;;;;;;;3.92;2.83;;;10.40;99.90;;;;;;4972216;28;20417;-31
2023/11/13 09:32:51;;;;;;;2.83;2.63;;;10.40;99.90;;;;;;5004445;28;20838;-32
2023/11/13 09:35:22;;;;;;;5.43;3.63;;;10.40;99.90;;;;;;5018850;28;20191;-33
2023/11/13 09:37:49;;;;;;;4.63;2.60;;;10.50;99.90;;;;;;5015090;28;20449;-28
2023/11/13 09:40:19;;;;;;;4.07;3.43;;;10.50;99.90;;;;;;5020514;28;20470;-34
2023/11/13 09:43:06;;;;;;;4.73;3.30;;;10.50;99.90;;;;;;4991348;28;20479;-31
2023/11/13 09:45:39;;;;;;;3.25;2.95;;;10.50;99.90;;;;;;5019533;28;20461;-32
2023/11/13 09:48:07;;;;;;;3.47;2.60;;;10.50;99.90;;;;;;4996701;28;20220;-30
2023/11/13 09:50:34;;;;;;;3.50;3.20;;;10.60;99.90;;;;;;4994101;28;20195;-31
2023/11/13 09:53:03;;;;;;;3.63;2.67;;;10.60;99.90;;;;;;4984256;28;20475;-30
2023/11/13 09:55:41;;;;;;;3.60;3.10;;;10.60;99.90;;;;;;4993739;28;20215;-27
2023/11/13 09:58:12;;;;;;;3.53;2.57;;;10.60;99.90;;;;;;5009963;28;20448;-31
2023/11/13 10:00:41;;;;;;;4.23;3.03;;;10.60;99.90;;;;;;4975269;28;20802;-30
2023/11/13 10:03:15;;;;;;;4.07;2.80;;;10.60;99.90;;;;;;5019091;28;20461;-31
2023/11/13 10:05:43;;;;;;;3.93;2.60;;;10.60;99.90;;;;;;5014113;28;20452;-29
2023/11/13 10:08:12;;;;;;;3.60;2.75;;;10.60;99.90;;;;;;4992005;28;20448;-30
2023/11/13 10:10:42;;;;;;;4.20;2.70;;;10.60;99.90;;;;;;5015038;28;20208;-27
2023/11/13 10:13:14;;;;;;;3.43;2.50;;;10.60;99.90;;;;;;4993641;28;20471;-30
2023/11/13 10:15:44;;;;;;;3.23;2.50;;;10.60;99.90;;;;;;4995869;28;20438;-33
2023/11/13 10:18:12;;;;;;;2.77;2.40;;;10.60;99.90;;;;;;5016071;28;20459;-30
2023/11/13 10:20:49;;;;;;;2.63;2.43;;;10.60;99.90;;;;;;5012824;28;20482;-27
2023/11/13 10:23:16;;;;;;;3.30;2.80;;;10.50;99.90;;;;;;4996704;28;20834;-28
2023/11/13 10:25:56;;;;;;;4.53;2.93;;;10.60;99.90;;;;;;4974952;28;20460;-28
2023/11/13 10:28:40;;;;;;;3.10;2.50;;;10.50;99.90;;;;;;4991467;28;20439;-32
2023/11/13 10:31:13;;;;;;;2.95;2.03;;;10.50;99.90;;;;;;4981489;28;20463;-33
2023/11/13 10:33:40;;;;;;;4.07;2.37;;;10.60;99.90;;;;;;5015692;28;20220;-32
2023/11/13 10:36:17;;;;;;;3.67;2.38;;;10.60;99.90;;;;;;5013147;28;20474;-34
2023/11/13 10:38:51;;;;;;;2.63;2.40;;;10.60;99.90;;;;;;5000971;28;20233;-30
2023/11/13 10:41:21;;;;;;;2.20;2.00;;;10.60;99.90;;;;;;5015944;28;20444;-29
2023/11/13 10:43:48;;;;;;;4.37;2.40;;;10.70;99.90;;;;;;5018129;28;20435;-34
2023/11/13 10:46:33;;;;;;;2.97;2.73;;;10.60;99.90;;;;;;5008582;28;20494;-30
2023/11/13 10:49:03;;;;;;;2.60;1.90;;;10.60;99.90;;;;;;4987003;28;20872;-32
2023/11/13 10:51:30;;;;;;;4.07;2.37;;;10.60;99.90;;;;;;4993185;28;20802;-31
2023/11/13 10:54:23;;;;;;;2.70;2.50;;;10.60;99.90;;;;;;4994705;28;20467;-30
2023/11/13 10:56:50;;;;;;;2.30;2.10;;;10.60;99.90;;;;;;4999771;28;21002;-31
2023/11/13 10:59:21;;;;;;;1.93;1.70;;;10.60;99.90;;;;;;4993006;28;20522;-30
2023/11/13 11:01:51;;;;;;;4.90;2.30;;;10.70;99.90;;;;;;4989668;28;20453;-28
2023/11/13 11:04:21;;;;;;;3.63;1.93;;;10.60;99.90;;;;;;4989556;28;20689;-30
2023/11/13 11:06:50;;;;;;;2.10;1.90;;;10.60;99.90;;;;;;4995047;28;20427;-31
2023/11/13 11:09:18;;;;;;;2.60;2.30;;;10.60;99.90;;;;;;5011874;28;20432;-28
2023/11/13 11:11:48;;;;;;;7.03;2.23;;;10.60;99.90;;;;;;5011303;28;20435;-28
2023/11/13 11:14:24;;;;;;;2.57;2.30;;;10.60;99.90;;;;;;5017758;28;20470;-31
2023/11/13 11:17:06;;;;;;;3.50;2.47;;;10.70;99.90;;;;;;4986752;28;20510;-30
2023/11/13 11:19:39;;;;;;;1.80;1.70;;;10.60;99.90;;;;;;4989059;28;20445;-30
2023/11/13 11:22:18;;;;;;;2.17;2.08;;;10.60;99.90;;;;;;4992655;28;20475;-27
2023/11/13 11:25:27;;;;;;;3.00;1.97;;;10.70;99.90;;;;;;5012058;28;20190;-28
2023/11/13 11:27:57;;;;;;;2.10;1.90;;;10.70;99.90;;;;;;4979798;28;20431;-27
2023/11/13 11:30:41;;;;;;;2.05;1.95;;;10.80;99.90;;;;;;5002586;28;20424;-29
2023/11/13 11:33:12;;;;;;;2.70;2.50;;;10.80;99.90;;;;;;5010700;28;20694;-27
2023/11/13 11:35:42;;;;;;;2.20;2.00;;;10.80;99.90;;;;;;5007278;28;20869;-32
2023/11/13 11:38:28;;;;;;;2.00;1.80;;;10.80;99.90;;;;;;5008064;28;20632;-30
2023/11/13 11:41:00;;;;;;;5.73;2.40;;;10.80;99.90;;;;;;5020636;28;20473;-31
2023/11/13 11:43:35;;;;;;;2.63;2.43;;;10.80;99.90;;;;;;5004296;28;20417;-27
2023/11/13 11:46:06;;;;;;;3.13;2.13;;;10.80;99.90;;;;;;4954858;28;20447;-33
2023/11/13 11:48:37;;;;;;;2.13;1.80;;;10.80;99.90;;;;;;5010256;28;20434;-34
2023/11/13 11:51:21;;;;;;;5.37;2.20;;;10.80;99.90;;;;;;5018381;28;20426;-32
2023/11/13 11:53:58;;;;;;;2.87;2.10;;;10.80;99.90;;;;;;5000022;28;20534;-30
2023/11/13 11:56:27;;;;;;;3.00;2.10;;;10.80;99.90;;;;;;5007484;28;20923;-30
2023/11/13 11:58:55;;;;;;;3.87;2.00;;;10.80;99.90;;;;;;5017464;28;20420;-31
2023/11/13 12:01:27;;;;;;;4.30;2.60;;;10.80;99.90;;;;;;5004967;28;20439;-34
2023/11/13 12:03:53;;;;;;;4.90;2.03;;;10.80;99.90;;;;;;5004823;28;20192;-29
2023/11/13 12:06:20;;;;;;;3.07;2.77;;;10.90;99.90;;;;;;5012668;28;20479;-31
2023/11/13 12:08:49;;;;;;;2.60;2.40;;;10.90;99.90;;;;;;5003257;28;20932;-30
2023/11/13 12:11:24;;;;;;;4.07;2.35;;;10.90;99.90;;;;;;5009863;28;20486;-30
2023/11/13 12:13:50;;;;;;;2.50;2.30;;;10.90;99.90;;;;;;5005881;28;20236;-32
2023/11/13 12:16:16;;;;;;;6.70;2.17;;;11.00;99.90;;;;;;5002348;28;20426;-31
2023/11/13 12:18:43;;;;;;;2.93;2.37;;;11.00;99.90;;;;;;5004018;28;20445;-30
2023/11/13 12:21:09;;;;;;;2.50;2.30;;;10.90;99.90;;;;;;5019602;28;20209;-31
2023/11/13 12:23:35;;;;;;;3.33;2.20;;;10.90;99.90;;;;;;4994762;28;21278;-33
2023/11/13 12:26:03;;;;;;;2.07;1.87;;;10.90;99.90;;;;;;5013830;28;20186;-31
2023/11/13 12:28:29;;;;;;;2.60;2.40;;;10.90;99.90;;;;;;4981713;28;21222;-34
2023/11/13 12:30:58;;;;;;;2.80;2.60;;;10.90;99.90;;;;;;5006480;28;20508;-31
2023/11/13 12:33:24;;;;;;;3.33;2.27;;;11.00;99.90;;;;;;5011379;28;20568;-31
2023/11/13 12:35:58;;;;;;;2.60;2.27;;;11.00;99.90;;;;;;4951233;28;20429;-33
2023/11/13 12:38:26;;;;;;;3.60;2.50;;;10.90;99.90;;;;;;4989890;28;20476;-30
2023/11/13 12:40:54;;;;;;;2.53;2.33;;;10.90;99.90;;;;;;5003066;28;20505;-35
2023/11/13 12:43:21;;;;;;;2.97;2.77;;;10.90;99.90;;;;;;4966807;28;20445;-29
2023/11/13 12:45:51;;;;;;;4.67;2.20;;;10.90;99.90;;;;;;5007012;28;20452;-30
2023/11/13 12:48:22;;;;;;;3.17;2.43;;;10.90;99.90;;;;;;5010341;28;20444;-33
2023/11/13 12:50:48;;;;;;;3.23;2.23;;;10.90;99.90;;;;;;4985964;28;20523;-28
2023/11/13 12:53:19;;;;;;;3.80;3.00;;;10.90;99.90;;;;;;4984361;28;20579;-31
2023/11/13 12:55:46;;;;;;;4.70;2.50;;;10.90;99.90;;;;;;5001255;28;20875;-31